Flight ASX419

  • Submitted By: Krzysztof H. Blaszkow
  • Departure Airport: Dublin (EIDW)
  • Arrival Airport: Cork Airport (EICK)
  • Aircraft: ATR 72-500 (SP-SCZ)
  • Flight Time: 01.14.19
  • Date Submitted: 03/05/2017
  • Status: Accepted
Flight Details
Gross Revenue:
(71 load / € 55.00 per unit
€ 3,905.00
Fuel Cost:
(509.384 fuel used @ 0.45 / unit)
€ 229.22

Additional Log Information:

View Log

[20:37] - Flight 1 ATR 72-500 House Livery
[20:37] - Flight ASX419 is ready to depart EIDW with a final destination of EICK.
[20:37] - Parking Brake Applied
[20:37] - Beacon Light ON
[20:37] - Boarding
[20:37] - ADF1 - 305.0
[20:37] - ADF2 - 371.0
[20:37] - NAV1 - 111.35
[20:37] - NAV2 - 111.35
[20:37] - COM1 - 122.80
[20:37] - COM2 - 125.27
[20:37] - Transponder - 6632
[20:37] - NAV1 - 114.90
[20:42] - COM1 - 118.60
[20:45] - COM1 - 131.15
[20:50] - Transponder - 6642
[20:51] - Transponder - 6661
[20:51] - Logo Lights ON 6AGL
[20:51] - Navigation Lights ON 6AGL
[20:51] - Taxi Lights ON 6AGL
[20:55] - Pushing Back from the gate
[20:55] - Parking Brake Released
[20:55] - Engine 1 Started
[20:56] - Engine 2 Started
[21:00] - Flaps to position 1
[21:01] - Taxiing to Runway
[21:03] - Landing Lights ON 6AGL
[21:03] - Taxi Lights OFF 6AGL
[21:03] - Strobe Lights ON 6AGL
[21:05] - Taking Off with 71 passengers on board
[21:05] - Take off at 123kts, with a pitch of 5deg and 4264lbs of fuel on board
[21:05] - Wind Heading 244 | Wind Speed 10kts | Temperature 5 deg C
[21:05] - METAR Departure: EIDW 052030Z 25011KT 9999 FEW016 SCT030 04/03 Q0997 NOSIG

[21:05] - Flaps to position 0 at 358ft and 128kts
[21:05] - Gear up at 282AGL
[21:05] - Climbing to TOC
[21:10] - AutoPilot Engaged at 10774AGL
[21:11] - Landing Lights OFF 10817AGL
[21:16] - NAV2 - 109.90
[21:16] - NAV1 - 114.60
[21:23] - COM1 - 119.90
[21:28] - Landing Lights ON 9672AGL
[21:30] - NAV1 - 109.90
[21:41] - Flaps to position 1 at 2923ft and 203kts
[21:41] - Gear down at 2477AGL
[21:43] - AutoPilot Disengaged at 568AGL
[21:44] - Landed at -327fpm. With 3274lbs of fuel onboard and a pitch angle of 2deg.
[21:44] - Wind Heading 260 | Wind Speed 14kts | Temperature 5 deg C
[21:44] - METAR Arrival: EICK 052130Z 25007KT 9999 FEW018 SCT060 BKN160 04/01 Q1001 NOSIG

[21:44] - Flaps to position 0
[21:44] - Taxiing to Gate
[21:48] - Landing Lights OFF 3AGL
[21:48] - Taxi Lights ON 3AGL
[21:48] - Strobe Lights OFF 3AGL
[21:50] - Parking Brake Applied
[21:50] - Arrived safely at EICK. We hope you enjoyed your flight!
[21:51] - Engine 1 Stopped
[21:51] - Engine 2 Stopped
[21:52] - Taxi Lights OFF 3AGL
[21:52] - Navigation Lights OFF 3AGL
[21:52] - Logo Lights OFF 3AGL
[21:52] - Flight 1 ATR 72-500 House Livery
[21:52] - MaxSim Rate: 1x
[21:52] - SiouxAcars ver: 1.0.1.2

Route Map